Contact Us:
Email: info@sawbill.com
Phone: (218)663-7150
Fax: (218)663-7980
Mail: 4620 Sawbill Trail
Box 2129
Tofte, MN 55615


Powered by
Movable Type 3.15
 
Sawbill Weather History Archives: August 2009
Current Sawbill Weather History | « July 2009 | September 2009 »


Date

High
Temperature

Low
Temperature

Barometric
Pressure

Relative
Humidity 7AM

9 AM
Temperature

Moisture

Snow

8/31/09 66 42 30.53 88% 50 0
8/30/09 60 41 30.50 85% 42 0
8/29/09 56 43 30.47 92% 43 .04"
8/28/09 56 47 30.27 92% 47 .38"
8/27/09 71 47 30.33 96% 55 .25"
8/26/09 74 47 30.35 82% 47 0
8/25/09 68 49 30.45 83% 49 0
8/24/09 70 49 30.15 80% 61 0
8/23/09 65 40 30.27 87% 49 0
8/22/09 64 40 30.36 80% 40 0
8/21/09 62 49 30.36 85% 49 0
8/20/09 60 53 29.97 96% 53 .32"
8/19/09 62 44 29.80 98% 56 1.02"
8/18/09 60 44 30.12 85% 44 0
8/17/09 73 53 30.09 90% 54 .18"
8/16/09 70 57 30.18 97% 57 .83"
8/15/09 77 63 30.06 98% 64 .25"
8/14/09 79 61 30.21 98% 64 .46"
8/13/09 84 60 30.24 86% 61 0
8/12/09 82 62 30.27 90% 66 0
8/11/09 76 52 30.30 80% 62 0
8/10/09 69 52 30.27 83% 52 .1"
8/9/09 69 56 30.15 94% 57 0
8/8/09 69 58 30.09 98% 63 Trace
8/7/09 69 48 30.12 94% 58 Trace
8/6/09 68 48 30.07 89% 48 0
8/5/09 66 49 30.30 97% 53 0
8/4/09 64 49 30.27 86% 49 0
8/3/09 69 52 30.09 89% 54 .08"
8/2/09 66 49 29.91 87% 55 Trace
8/1/09 62 49 29.94 90% 49 .08"
 


Home I Trip Planning I Rentals and Outfitting I Reservations I Campgrounds I Sawbill Store I Sawbill News I Contact

© 1997 - 2017, Sawbill Canoe Outfitters, Inc. I Privacy Policy